createdAt,value
2016-09-06T00:00:18.804Z,974.63
2016-09-06T00:01:18.769Z,974.56
2016-09-06T00:02:18.739Z,974.59
2016-09-06T00:03:18.702Z,974.61
2016-09-06T00:04:18.671Z,974.62
2016-09-06T00:05:18.638Z,974.63
2016-09-06T00:06:18.605Z,974.62
2016-09-06T00:07:18.571Z,974.63
2016-09-06T00:08:18.540Z,974.63
2016-09-06T00:09:18.506Z,974.63
2016-09-06T00:10:18.472Z,974.63
2016-09-06T00:11:18.438Z,974.63
2016-09-06T00:12:18.406Z,974.66
2016-09-06T00:13:18.373Z,974.64
2016-09-06T00:14:18.341Z,974.62
2016-09-06T00:15:18.308Z,974.63
2016-09-06T00:16:18.276Z,974.68
2016-09-06T00:17:18.242Z,974.67
2016-09-06T00:18:18.207Z,974.65
2016-09-06T00:19:18.175Z,974.67
2016-09-06T00:20:18.141Z,974.67
2016-09-06T00:21:18.108Z,974.67
2016-09-06T00:22:18.077Z,974.66
2016-09-06T00:23:18.042Z,974.67
2016-09-06T00:24:18.008Z,974.67
2016-09-06T00:25:17.977Z,974.68
2016-09-06T00:26:17.941Z,974.68
2016-09-06T00:27:17.911Z,974.7
2016-09-06T00:28:17.876Z,974.7
2016-09-06T00:29:17.843Z,974.7
2016-09-06T00:30:17.811Z,974.73
2016-09-06T00:31:17.778Z,974.73
2016-09-06T00:32:17.745Z,974.73
2016-09-06T00:33:17.713Z,974.75
2016-09-06T00:34:17.679Z,974.74
2016-09-06T00:35:17.645Z,974.75
2016-09-06T00:36:17.612Z,974.74
2016-09-06T00:37:17.578Z,974.73
2016-09-06T00:38:17.545Z,974.76
2016-09-06T00:39:17.513Z,974.73
2016-09-06T00:40:17.477Z,974.73
2016-09-06T00:41:17.447Z,974.77
2016-09-06T00:42:17.413Z,974.76
2016-09-06T00:43:17.382Z,974.74
2016-09-06T00:44:17.347Z,974.78
2016-09-06T00:45:17.312Z,974.74
2016-09-06T00:46:17.279Z,974.75
2016-09-06T00:47:17.250Z,974.7
2016-09-06T00:48:17.214Z,974.78
2016-09-06T00:49:17.185Z,974.76
2016-09-06T00:50:17.153Z,974.75
2016-09-06T00:51:17.114Z,974.78
2016-09-06T00:52:17.083Z,974.78
2016-09-06T00:53:17.049Z,974.77
2016-09-06T00:54:17.017Z,974.8
2016-09-06T00:55:16.983Z,974.8
2016-09-06T00:56:16.947Z,974.82
2016-09-06T00:57:16.918Z,974.85
2016-09-06T00:58:16.882Z,974.82
2016-09-06T00:59:16.853Z,974.84
2016-09-06T01:00:16.816Z,974.83
2016-09-06T01:01:16.785Z,974.84
2016-09-06T01:02:16.748Z,974.82
2016-09-06T01:03:16.716Z,974.78
2016-09-06T01:04:16.684Z,974.81
2016-09-06T01:05:16.651Z,974.8
2016-09-06T01:06:16.618Z,974.8
2016-09-06T01:07:16.584Z,974.81
2016-09-06T01:08:16.550Z,974.81
2016-09-06T01:09:16.519Z,974.84
2016-09-06T01:10:16.484Z,974.79
2016-09-06T01:11:16.450Z,974.81
2016-09-06T01:12:16.419Z,974.75
2016-09-06T01:13:16.383Z,974.7
2016-09-06T01:14:16.351Z,974.71
2016-09-06T01:15:16.319Z,974.71
2016-09-06T01:16:16.285Z,974.7
2016-09-06T01:17:16.250Z,974.69
2016-09-06T01:18:16.218Z,974.67
2016-09-06T01:19:16.185Z,974.73
2016-09-06T01:20:16.152Z,974.69
2016-09-06T01:21:16.120Z,974.67
2016-09-06T01:22:16.086Z,974.69
2016-09-06T01:23:16.055Z,974.66
2016-09-06T01:24:16.018Z,974.65
2016-09-06T01:25:15.988Z,974.66
2016-09-06T01:26:15.953Z,974.67
2016-09-06T01:27:15.921Z,974.67
2016-09-06T01:28:15.887Z,974.62
2016-09-06T01:29:15.853Z,974.62
2016-09-06T01:30:15.821Z,974.62
2016-09-06T01:31:15.784Z,974.65
2016-09-06T01:32:15.753Z,974.66
2016-09-06T01:33:15.720Z,974.62
2016-09-06T01:34:15.685Z,974.68
2016-09-06T01:35:15.651Z,974.66
2016-09-06T01:36:15.620Z,974.62
2016-09-06T01:37:15.585Z,974.65
2016-09-06T01:38:15.556Z,974.67
2016-09-06T01:39:15.519Z,974.69
2016-09-06T01:40:15.487Z,974.69
2016-09-06T01:41:15.452Z,974.68
2016-09-06T01:42:15.418Z,974.7
2016-09-06T01:43:15.385Z,974.68
2016-09-06T01:44:15.353Z,974.72
2016-09-06T01:45:15.318Z,974.71
2016-09-06T01:46:15.286Z,974.7
2016-09-06T01:47:15.251Z,974.7
2016-09-06T01:48:15.219Z,974.7
2016-09-06T01:49:15.188Z,974.7
2016-09-06T01:50:15.152Z,974.68
2016-09-06T01:51:15.118Z,974.73
2016-09-06T01:52:15.084Z,974.75
2016-09-06T01:53:15.050Z,974.78
2016-09-06T01:54:15.017Z,974.73
2016-09-06T01:55:14.987Z,974.77
2016-09-06T01:56:14.951Z,974.75
2016-09-06T01:57:14.916Z,974.74
2016-09-06T01:58:14.883Z,974.75
2016-09-06T01:59:14.851Z,974.77
2016-09-06T02:00:14.814Z,974.75
2016-09-06T02:01:14.795Z,974.71
2016-09-06T02:02:14.747Z,974.7
2016-09-06T02:03:14.715Z,974.7
2016-09-06T02:04:14.682Z,974.64
2016-09-06T02:05:14.645Z,974.64
2016-09-06T02:06:14.614Z,974.67
2016-09-06T02:07:14.580Z,974.64
2016-09-06T02:08:14.545Z,974.65
2016-09-06T02:09:14.511Z,974.62
2016-09-06T02:10:14.481Z,974.62
2016-09-06T02:11:14.444Z,974.63
2016-09-06T02:12:14.410Z,974.66
2016-09-06T02:13:14.378Z,974.66
2016-09-06T02:14:14.343Z,974.67
2016-09-06T02:15:14.312Z,974.7
2016-09-06T02:16:14.275Z,974.72
2016-09-06T02:17:14.242Z,974.75
2016-09-06T02:18:14.208Z,974.74
2016-09-06T02:19:14.177Z,974.76
2016-09-06T02:20:14.140Z,974.78
2016-09-06T02:21:14.108Z,974.83
2016-09-06T02:22:14.073Z,974.82
2016-09-06T02:23:14.038Z,974.78
2016-09-06T02:24:14.004Z,974.85
2016-09-06T02:25:13.971Z,974.85
2016-09-06T02:26:13.937Z,974.87
2016-09-06T02:27:13.904Z,974.85
2016-09-06T02:28:13.869Z,974.86
2016-09-06T02:29:13.835Z,974.89
2016-09-06T02:30:13.802Z,974.91
2016-09-06T02:31:13.767Z,974.89
2016-09-06T02:32:13.731Z,974.89
2016-09-06T02:33:13.699Z,974.88
2016-09-06T02:34:13.666Z,974.9
2016-09-06T02:35:13.630Z,974.88
2016-09-06T02:36:13.597Z,974.89
2016-09-06T02:37:13.561Z,974.87
2016-09-06T02:38:13.528Z,974.9
2016-09-06T02:39:13.496Z,974.91
2016-09-06T02:40:13.469Z,974.9
2016-09-06T02:41:13.427Z,974.9
2016-09-06T02:42:13.392Z,974.88
2016-09-06T02:43:13.359Z,974.9
2016-09-06T02:44:13.324Z,974.88
2016-09-06T02:45:13.290Z,974.88
2016-09-06T02:46:13.256Z,974.85
2016-09-06T02:47:13.222Z,974.88
2016-09-06T02:48:13.201Z,974.82
2016-09-06T02:49:13.154Z,974.88
2016-09-06T02:50:13.120Z,974.9
2016-09-06T02:51:13.085Z,974.92
2016-09-06T02:52:13.050Z,974.97
2016-09-06T02:53:13.015Z,974.93
2016-09-06T02:54:12.982Z,974.96
2016-09-06T02:55:12.948Z,974.96
2016-09-06T02:56:12.913Z,974.95
2016-09-06T02:57:12.880Z,974.98
2016-09-06T02:58:12.846Z,974.99
2016-09-06T02:59:12.819Z,974.95
2016-09-06T03:00:12.775Z,974.98
2016-09-06T03:01:12.751Z,974.96
2016-09-06T03:02:12.708Z,974.93
2016-09-06T03:03:12.673Z,974.94
2016-09-06T03:04:12.638Z,974.98
2016-09-06T03:05:12.606Z,974.95
2016-09-06T03:06:12.569Z,975.02
2016-09-06T03:07:12.536Z,975.05
2016-09-06T03:08:12.502Z,975.07
2016-09-06T03:09:12.468Z,975.07
2016-09-06T03:10:12.431Z,975.06
2016-09-06T03:11:12.400Z,975.08
2016-09-06T03:12:12.365Z,975.04
2016-09-06T03:13:12.329Z,975.02
2016-09-06T03:14:12.294Z,975.02
2016-09-06T03:15:12.261Z,974.99
2016-09-06T03:16:12.226Z,975.06
2016-09-06T03:17:12.193Z,975.05
2016-09-06T03:18:12.159Z,975.03
2016-09-06T03:19:12.123Z,975.01
2016-09-06T03:20:12.090Z,975.03
2016-09-06T03:21:12.055Z,975
2016-09-06T03:22:12.019Z,974.99
2016-09-06T03:23:11.986Z,974.95
2016-09-06T03:24:11.951Z,974.96
2016-09-06T03:25:11.916Z,974.99
2016-09-06T03:26:11.887Z,974.99
2016-09-06T03:27:11.846Z,974.98
2016-09-06T03:28:11.810Z,974.99
2016-09-06T03:29:11.778Z,975
2016-09-06T03:30:11.744Z,975.01
2016-09-06T03:31:11.709Z,975
2016-09-06T03:32:11.673Z,975.08
2016-09-06T03:33:11.641Z,975.05
2016-09-06T03:34:11.605Z,975.03
2016-09-06T03:35:11.571Z,975.07
2016-09-06T03:36:11.534Z,975.05
2016-09-06T03:37:11.501Z,975.06
2016-09-06T03:38:11.467Z,975.03
2016-09-06T03:39:11.430Z,975.08
2016-09-06T03:40:11.397Z,975.05
2016-09-06T03:41:11.366Z,975.09
2016-09-06T03:42:11.329Z,975.09
2016-09-06T03:43:11.294Z,975.11
2016-09-06T03:44:11.260Z,975.12
2016-09-06T03:45:11.223Z,975.11
2016-09-06T03:46:11.191Z,975.09
2016-09-06T03:47:11.154Z,975.12
2016-09-06T03:48:11.120Z,975.13
2016-09-06T03:49:11.085Z,975.15
2016-09-06T03:50:11.050Z,975.12
2016-09-06T03:51:11.015Z,975.16
2016-09-06T03:52:10.981Z,975.11
2016-09-06T03:53:10.947Z,975.15
2016-09-06T03:54:10.911Z,975.14
2016-09-06T03:55:10.875Z,975.08
2016-09-06T03:56:10.843Z,975.09
2016-09-06T03:57:10.810Z,975.14
2016-09-06T03:58:10.772Z,975.15
2016-09-06T03:59:10.736Z,975.13
2016-09-06T04:00:10.702Z,975.1
2016-09-06T04:01:10.666Z,975.1
2016-09-06T04:02:10.632Z,975.13
2016-09-06T04:03:10.598Z,975.13
2016-09-06T04:04:10.578Z,975.13
2016-09-06T04:05:10.528Z,975.16
2016-09-06T04:06:10.494Z,975.15
2016-09-06T04:07:10.458Z,975.21
2016-09-06T04:08:10.427Z,975.23
2016-09-06T04:09:10.387Z,975.22
2016-09-06T04:10:10.353Z,975.24
2016-09-06T04:11:10.319Z,975.26
2016-09-06T04:12:10.284Z,975.27
2016-09-06T04:13:10.251Z,975.25
2016-09-06T04:14:10.214Z,975.29
2016-09-06T04:15:10.180Z,975.29
2016-09-06T04:16:10.146Z,975.28
2016-09-06T04:17:10.110Z,975.28
2016-09-06T04:18:10.076Z,975.26
2016-09-06T04:19:10.040Z,975.29
2016-09-06T04:20:10.004Z,975.3
2016-09-06T04:21:09.970Z,975.26
2016-09-06T04:22:09.933Z,975.29
2016-09-06T04:23:09.899Z,975.32
2016-09-06T04:24:09.866Z,975.31
2016-09-06T04:25:09.829Z,975.27
2016-09-06T04:26:09.795Z,975.24
2016-09-06T04:27:09.760Z,975.25
2016-09-06T04:28:09.724Z,975.24
2016-09-06T04:29:09.690Z,975.24
2016-09-06T04:30:09.655Z,975.26
2016-09-06T04:31:09.620Z,975.29
2016-09-06T04:32:09.585Z,975.28
2016-09-06T04:33:09.549Z,975.3
2016-09-06T04:34:09.514Z,975.29
2016-09-06T04:35:09.481Z,975.28
2016-09-06T04:36:09.443Z,975.29
2016-09-06T04:37:09.408Z,975.28
2016-09-06T04:38:09.374Z,975.33
2016-09-06T04:39:09.338Z,975.32
2016-09-06T04:40:09.305Z,975.33
2016-09-06T04:41:09.268Z,975.3
2016-09-06T04:42:09.233Z,975.33
2016-09-06T04:43:09.198Z,975.32
2016-09-06T04:44:09.164Z,975.3
2016-09-06T04:45:09.127Z,975.3
2016-09-06T04:46:09.091Z,975.24
2016-09-06T04:47:09.059Z,975.27
2016-09-06T04:48:09.024Z,975.26
2016-09-06T04:49:08.988Z,975.29
2016-09-06T04:50:08.952Z,975.3
2016-09-06T04:51:08.917Z,975.29
2016-09-06T04:52:08.881Z,975.31
2016-09-06T04:53:08.846Z,975.3
2016-09-06T04:54:08.811Z,975.31
2016-09-06T04:55:08.778Z,975.3
2016-09-06T04:56:08.742Z,975.34
2016-09-06T04:57:08.707Z,975.32
2016-09-06T04:58:08.672Z,975.33
2016-09-06T04:59:08.635Z,975.37
2016-09-06T05:00:08.600Z,975.37
2016-09-06T05:01:08.567Z,975.4
2016-09-06T05:02:08.531Z,975.36
2016-09-06T05:03:08.502Z,975.41
2016-09-06T05:04:08.460Z,975.44
2016-09-06T05:05:08.427Z,975.41
2016-09-06T05:06:08.389Z,975.39
2016-09-06T05:07:08.361Z,975.38
2016-09-06T05:08:08.320Z,975.4
2016-09-06T05:09:08.285Z,975.41
2016-09-06T05:10:08.250Z,975.44
2016-09-06T05:11:08.214Z,975.38
2016-09-06T05:12:08.178Z,975.41
2016-09-06T05:13:08.143Z,975.41
2016-09-06T05:14:08.109Z,975.39
2016-09-06T05:15:08.074Z,975.44
2016-09-06T05:16:08.039Z,975.45
2016-09-06T05:17:08.005Z,975.45
2016-09-06T05:18:07.970Z,975.43
2016-09-06T05:19:07.932Z,975.53
2016-09-06T05:20:07.899Z,975.5
2016-09-06T05:21:07.863Z,975.48
2016-09-06T05:22:07.828Z,975.44
2016-09-06T05:23:07.792Z,975.46
2016-09-06T05:24:07.760Z,975.5
2016-09-06T05:25:07.724Z,975.54
2016-09-06T05:26:07.687Z,975.53
2016-09-06T05:27:07.653Z,975.56
2016-09-06T05:28:07.619Z,975.49
2016-09-06T05:29:07.582Z,975.49
2016-09-06T05:30:07.548Z,975.49
2016-09-06T05:31:07.516Z,975.51
2016-09-06T05:32:07.481Z,975.51
2016-09-06T05:33:07.444Z,975.53
2016-09-06T05:34:07.414Z,975.58
2016-09-06T05:35:07.376Z,975.56
2016-09-06T05:36:07.342Z,975.58
2016-09-06T05:37:07.308Z,975.61
2016-09-06T05:38:07.276Z,975.59
2016-09-06T05:39:07.242Z,975.57
2016-09-06T05:40:07.208Z,975.6
2016-09-06T05:41:07.177Z,975.62
2016-09-06T05:42:07.142Z,975.7
2016-09-06T05:43:07.108Z,975.71
2016-09-06T05:44:07.075Z,975.67
2016-09-06T05:45:07.048Z,975.63
2016-09-06T05:46:07.013Z,975.64
2016-09-06T05:47:06.987Z,975.64
2016-09-06T05:48:06.945Z,975.66
2016-09-06T05:49:06.914Z,975.67
2016-09-06T05:50:06.882Z,975.68
2016-09-06T05:51:06.851Z,975.68
2016-09-06T05:52:06.819Z,975.69
2016-09-06T05:53:06.786Z,975.69
2016-09-06T05:54:06.755Z,975.73
2016-09-06T05:55:06.721Z,975.71
2016-09-06T05:56:06.690Z,975.69
2016-09-06T05:57:06.660Z,975.73
2016-09-06T05:58:06.625Z,975.73
2016-09-06T05:59:06.595Z,975.8
2016-09-06T06:00:06.566Z,975.75
2016-09-06T06:01:06.533Z,975.71
2016-09-06T06:02:06.497Z,975.73
2016-09-06T06:03:06.467Z,975.7
2016-09-06T06:04:06.434Z,975.69
2016-09-06T06:05:06.405Z,975.73
2016-09-06T06:06:06.373Z,975.77
2016-09-06T06:07:06.342Z,975.77
2016-09-06T06:08:06.314Z,975.81
2016-09-06T06:09:06.277Z,975.8
2016-09-06T06:10:06.245Z,975.82
2016-09-06T06:11:06.216Z,975.87
2016-09-06T06:12:06.182Z,975.84
2016-09-06T06:13:06.149Z,975.84
2016-09-06T06:14:06.119Z,975.82
2016-09-06T06:15:06.087Z,975.84
2016-09-06T06:16:06.054Z,975.82
2016-09-06T06:17:06.021Z,975.84
2016-09-06T06:18:05.992Z,975.87
2016-09-06T06:19:05.960Z,975.88
2016-09-06T06:20:05.928Z,975.83
2016-09-06T06:21:05.896Z,975.84
2016-09-06T06:22:05.865Z,975.9
2016-09-06T06:23:05.834Z,975.83
2016-09-06T06:24:05.802Z,975.8
2016-09-06T06:25:05.772Z,975.89
2016-09-06T06:26:05.740Z,975.94
2016-09-06T06:27:05.707Z,975.94
2016-09-06T06:28:05.674Z,975.87
2016-09-06T06:29:05.645Z,975.95
2016-09-06T06:30:05.616Z,975.9
2016-09-06T06:31:05.583Z,975.93
2016-09-06T06:32:05.552Z,975.96
2016-09-06T06:33:05.522Z,975.96
2016-09-06T06:34:05.493Z,975.96
2016-09-06T06:35:05.460Z,975.97
2016-09-06T06:36:05.433Z,975.94
2016-09-06T06:37:05.402Z,975.94
2016-09-06T06:38:05.372Z,975.97
2016-09-06T06:39:05.342Z,975.94
2016-09-06T06:40:05.314Z,975.95
2016-09-06T06:41:05.286Z,975.95
2016-09-06T06:42:05.256Z,975.96
2016-09-06T06:43:05.228Z,976
2016-09-06T06:44:05.202Z,976
2016-09-06T06:45:05.173Z,975.95
2016-09-06T06:46:05.151Z,976.02
2016-09-06T06:47:05.117Z,976.02
2016-09-06T06:48:05.094Z,976.01
2016-09-06T06:49:05.066Z,976
2016-09-06T06:50:05.037Z,976.02
2016-09-06T06:51:05.013Z,976.03
2016-09-06T06:52:04.988Z,976
2016-09-06T06:53:04.962Z,975.98
2016-09-06T06:54:04.933Z,975.97
2016-09-06T06:55:04.910Z,976.04
2016-09-06T06:56:04.885Z,976.04
2016-09-06T06:57:04.860Z,976
2016-09-06T06:58:04.834Z,976.02
2016-09-06T06:59:04.811Z,976.05
2016-09-06T07:00:04.785Z,976.06
2016-09-06T07:01:04.761Z,976.09
2016-09-06T07:02:04.739Z,976.11
2016-09-06T07:03:04.714Z,976.11
2016-09-06T07:04:04.690Z,976.13
2016-09-06T07:05:04.667Z,976.04
2016-09-06T07:06:04.642Z,976.04
2016-09-06T07:07:04.631Z,976.06
2016-09-06T07:08:04.594Z,976.03
2016-09-06T07:09:04.570Z,976.04
2016-09-06T07:10:04.546Z,976.04
2016-09-06T07:11:04.524Z,976.07
2016-09-06T07:12:04.502Z,976.07
2016-09-06T07:13:04.480Z,976.07
2016-09-06T07:14:04.456Z,976.07
2016-09-06T07:15:04.432Z,976.12
2016-09-06T07:16:04.411Z,976.11
2016-09-06T07:17:04.387Z,976.15
2016-09-06T07:18:04.367Z,976.13
2016-09-06T07:19:04.343Z,976.12
2016-09-06T07:20:04.323Z,976.15
2016-09-06T07:21:04.298Z,976.13
2016-09-06T07:22:04.276Z,976.14
2016-09-06T07:23:04.255Z,976.09
2016-09-06T07:24:04.232Z,976.18
2016-09-06T07:25:04.211Z,976.17
2016-09-06T07:26:04.190Z,976.21
2016-09-06T07:27:04.170Z,976.24
2016-09-06T07:28:04.147Z,976.22
2016-09-06T07:29:04.128Z,976.25
2016-09-06T07:30:04.105Z,976.24
2016-09-06T07:31:04.086Z,976.21
2016-09-06T07:32:04.063Z,976.23
2016-09-06T07:33:04.042Z,976.2
2016-09-06T07:34:04.023Z,976.22
2016-09-06T07:35:04.001Z,976.17
2016-09-06T07:36:03.981Z,976.19
2016-09-06T07:37:03.958Z,976.19
2016-09-06T07:38:03.938Z,976.19
2016-09-06T07:39:03.919Z,976.23
2016-09-06T07:40:03.901Z,976.27
2016-09-06T07:41:03.880Z,976.27
2016-09-06T07:42:03.858Z,976.28
2016-09-06T07:43:03.840Z,976.31
2016-09-06T07:44:03.818Z,976.28
2016-09-06T07:45:03.797Z,976.25
2016-09-06T07:46:03.780Z,976.28
2016-09-06T07:47:03.761Z,976.29
2016-09-06T07:48:03.739Z,976.37
2016-09-06T07:49:03.720Z,976.33
2016-09-06T07:50:03.700Z,976.28
2016-09-06T07:51:03.679Z,976.29
2016-09-06T07:52:03.658Z,976.32
2016-09-06T07:53:03.642Z,976.3
2016-09-06T07:54:03.623Z,976.3
2016-09-06T07:55:03.601Z,976.31
2016-09-06T07:56:03.583Z,976.28
2016-09-06T07:57:03.563Z,976.32
2016-09-06T07:58:03.544Z,976.32
2016-09-06T07:59:03.524Z,976.34
2016-09-06T08:00:03.505Z,976.35
2016-09-06T08:01:03.486Z,976.39
2016-09-06T08:02:03.467Z,976.4
2016-09-06T08:03:03.456Z,976.41
2016-09-06T08:04:03.427Z,976.39
2016-09-06T08:05:03.408Z,976.39
2016-09-06T08:06:03.388Z,976.42
2016-09-06T08:07:03.368Z,976.4
2016-09-06T08:08:03.349Z,976.41
2016-09-06T08:09:03.330Z,976.44
2016-09-06T08:10:03.309Z,976.37
2016-09-06T08:11:03.291Z,976.49
2016-09-06T08:12:03.271Z,976.48
2016-09-06T08:13:03.250Z,976.41
2016-09-06T08:14:03.232Z,976.45
2016-09-06T08:15:03.218Z,976.51
2016-09-06T08:16:03.197Z,976.53
2016-09-06T08:17:03.175Z,976.53
2016-09-06T08:18:03.155Z,976.52
2016-09-06T08:19:03.136Z,976.54
2016-09-06T08:20:03.119Z,976.56
2016-09-06T08:21:03.099Z,976.58
2016-09-06T08:22:03.081Z,976.56
2016-09-06T08:23:03.063Z,976.59
2016-09-06T08:24:03.042Z,976.63
2016-09-06T08:25:03.025Z,976.69
2016-09-06T08:26:03.005Z,976.66
2016-09-06T08:27:02.987Z,976.67
2016-09-06T08:28:02.971Z,976.73
2016-09-06T08:29:02.950Z,976.71
2016-09-06T08:30:02.933Z,976.7
2016-09-06T08:31:02.914Z,976.74
2016-09-06T08:32:02.896Z,976.73
2016-09-06T08:33:02.876Z,976.72
2016-09-06T08:34:02.857Z,976.77
2016-09-06T08:35:02.840Z,976.74
2016-09-06T08:36:02.819Z,976.72
2016-09-06T08:37:02.801Z,976.76
2016-09-06T08:38:02.783Z,976.87
2016-09-06T08:39:02.764Z,976.83
2016-09-06T08:40:02.748Z,976.89
2016-09-06T08:41:02.727Z,976.82
2016-09-06T08:42:02.710Z,976.93
2016-09-06T08:43:02.692Z,976.85
2016-09-06T08:44:02.672Z,976.87
2016-09-06T08:45:02.653Z,976.91
2016-09-06T08:46:02.634Z,976.87
2016-09-06T08:47:02.615Z,976.9
2016-09-06T08:48:02.596Z,976.88
2016-09-06T08:49:02.579Z,976.91
2016-09-06T08:50:02.562Z,976.83
2016-09-06T08:51:02.542Z,976.87
2016-09-06T08:52:02.522Z,976.84
2016-09-06T08:53:02.504Z,976.85
2016-09-06T08:54:02.484Z,976.92
2016-09-06T08:55:02.464Z,976.9
2016-09-06T08:56:02.445Z,976.92
2016-09-06T08:57:02.426Z,976.93
2016-09-06T08:58:02.405Z,977
2016-09-06T08:59:02.390Z,976.97
2016-09-06T09:00:02.368Z,977.03
2016-09-06T09:01:02.347Z,977.08
2016-09-06T09:02:02.329Z,977.05
2016-09-06T09:03:02.309Z,977.1
2016-09-06T09:04:02.298Z,977.09
2016-09-06T09:05:02.268Z,977.12
2016-09-06T09:06:02.251Z,977.18
2016-09-06T09:07:02.230Z,977.2
2016-09-06T09:08:02.210Z,977.19
2016-09-06T09:09:02.193Z,977.26
2016-09-06T09:10:02.172Z,977.26
2016-09-06T09:11:02.154Z,977.31
2016-09-06T09:12:02.131Z,977.31
2016-09-06T09:13:02.113Z,977.3
2016-09-06T09:14:02.094Z,977.38
2016-09-06T09:15:02.074Z,977.42
2016-09-06T09:16:02.054Z,977.46
2016-09-06T09:17:02.042Z,977.47
2016-09-06T09:18:02.018Z,976.19
2016-09-06T09:19:01.998Z,977.55
2016-09-06T09:20:01.978Z,977.49
2016-09-06T09:21:01.960Z,977.56
2016-09-06T09:22:01.940Z,977.53
2016-09-06T09:23:01.918Z,977.54
2016-09-06T09:24:01.900Z,976.66
2016-09-06T09:25:01.886Z,976.28
2016-09-06T09:26:01.857Z,976.92
2016-09-06T09:27:01.839Z,977.63
2016-09-06T09:28:01.818Z,976.1
2016-09-06T09:29:01.799Z,977.38
2016-09-06T09:30:01.777Z,977.63
2016-09-06T09:31:01.759Z,977.62
2016-09-06T09:32:01.740Z,977.58
2016-09-06T09:33:01.718Z,977.5
2016-09-06T09:34:01.693Z,977.4
2016-09-06T09:35:01.671Z,977.02
2016-09-06T09:36:01.652Z,976.83
2016-09-06T09:37:01.628Z,976.73
2016-09-06T09:38:01.609Z,976.65
2016-09-06T09:39:01.589Z,976.65
2016-09-06T09:40:01.568Z,976.67
2016-09-06T09:41:01.547Z,976.58
2016-09-06T09:42:01.531Z,976.56
2016-09-06T09:43:01.508Z,976.49
2016-09-06T09:44:01.488Z,976.48
2016-09-06T09:45:01.469Z,976.43
2016-09-06T09:46:01.446Z,976.42
2016-09-06T09:47:01.427Z,976.39
2016-09-06T09:48:01.405Z,976.35
2016-09-06T09:49:01.389Z,976.37
2016-09-06T09:50:01.367Z,976.35
2016-09-06T09:51:01.347Z,976.31
2016-09-06T09:52:01.330Z,976.32
2016-09-06T09:53:01.310Z,976.36
2016-09-06T09:54:01.289Z,976.38
2016-09-06T09:55:01.273Z,976.35
2016-09-06T09:56:01.252Z,976.37
2016-09-06T09:57:01.234Z,976.46
2016-09-06T09:58:01.214Z,976.73
2016-09-06T09:59:01.197Z,977.25
2016-09-06T10:00:01.178Z,977.39
2016-09-06T10:01:01.159Z,977.3
2016-09-06T10:02:01.141Z,977.34
2016-09-06T10:03:01.120Z,977.2
2016-09-06T10:04:01.108Z,977.15
2016-09-06T10:05:01.082Z,977.18
2016-09-06T10:06:01.067Z,977.18
2016-09-06T10:07:01.046Z,977.18
2016-09-06T10:08:01.027Z,977.16
2016-09-06T10:09:01.007Z,977.39
2016-09-06T10:10:00.988Z,977.28
2016-09-06T10:11:00.969Z,977.23
2016-09-06T10:12:00.948Z,976.88
2016-09-06T10:13:00.931Z,976.05
2016-09-06T10:14:00.912Z,976.16
2016-09-06T10:15:00.894Z,976.01
2016-09-06T10:16:00.874Z,975.92
2016-09-06T10:17:00.854Z,975.81
2016-09-06T10:18:00.832Z,975.8
2016-09-06T10:19:00.814Z,975.82
2016-09-06T10:20:00.793Z,975.78
2016-09-06T10:21:00.772Z,976.04
2016-09-06T10:22:00.752Z,977.31
2016-09-06T10:23:00.730Z,977.38
2016-09-06T10:24:00.710Z,977.36
2016-09-06T10:25:00.688Z,977.43
2016-09-06T10:26:00.667Z,977.49
2016-09-06T10:27:00.645Z,977.54
2016-09-06T10:28:00.626Z,977.62
2016-09-06T10:29:00.603Z,977.68
2016-09-06T10:30:00.583Z,977.85
2016-09-06T10:31:00.561Z,978.03
2016-09-06T10:32:00.538Z,978.18
2016-09-06T10:33:00.519Z,978.41
2016-09-06T10:34:00.499Z,978.38
2016-09-06T10:35:00.478Z,978.55
2016-09-06T10:36:00.457Z,978.64
2016-09-06T10:37:00.440Z,978.63
2016-09-06T10:38:00.417Z,978.63
2016-09-06T10:39:00.396Z,978.81
2016-09-06T10:40:00.374Z,978.73
2016-09-06T10:41:00.355Z,978.87
2016-09-06T10:42:00.336Z,978.76
2016-09-06T10:43:00.315Z,977.5
2016-09-06T10:44:00.293Z,976.75
2016-09-06T10:45:00.275Z,976.68
2016-09-06T10:46:00.252Z,976.25
2016-09-06T10:47:00.231Z,976.53
2016-09-06T10:48:00.212Z,976.44
2016-09-06T10:49:00.191Z,976.51
2016-09-06T10:50:00.173Z,976.43
2016-09-06T10:51:00.150Z,976.42
2016-09-06T10:52:00.132Z,976.36
2016-09-06T10:53:00.115Z,976.44
2016-09-06T10:54:00.089Z,976.16
2016-09-06T10:55:00.068Z,975.63
2016-09-06T10:56:00.046Z,976.28
2016-09-06T10:57:00.028Z,976.32
2016-09-06T10:58:00.006Z,975.57
2016-09-06T10:58:59.988Z,975.44
2016-09-06T10:59:59.965Z,975.39
2016-09-06T11:00:59.947Z,975.36
2016-09-06T11:01:59.925Z,975.39
2016-09-06T11:02:59.904Z,975.29
2016-09-06T11:03:59.883Z,975.37
2016-09-06T11:04:59.861Z,975.36
2016-09-06T11:05:59.839Z,976.51
2016-09-06T11:06:59.819Z,976.45
2016-09-06T11:07:59.797Z,976.4
2016-09-06T11:08:59.774Z,976.45
2016-09-06T11:09:59.752Z,976.43
2016-09-06T11:10:59.731Z,976.32
2016-09-06T11:11:59.707Z,976.04
2016-09-06T11:12:59.687Z,975.87
2016-09-06T11:13:59.664Z,975.86
2016-09-06T11:14:59.641Z,975.8
2016-09-06T11:15:59.620Z,975.76
2016-09-06T11:16:59.596Z,975.68
2016-09-06T11:17:59.574Z,975.68
2016-09-06T11:18:59.552Z,975.59
2016-09-06T11:19:59.528Z,975.5
2016-09-06T11:20:59.507Z,975.25
2016-09-06T11:21:59.484Z,975.33
2016-09-06T11:22:59.461Z,975.26
2016-09-06T11:23:59.439Z,975.29
2016-09-06T11:24:59.417Z,975.33
2016-09-06T11:25:59.392Z,975.24
2016-09-06T11:26:59.381Z,975.23
2016-09-06T11:27:59.345Z,975.29
2016-09-06T11:28:59.321Z,975.25
2016-09-06T11:29:59.298Z,975.21
2016-09-06T11:30:59.274Z,975.15
2016-09-06T11:31:59.251Z,975.15
2016-09-06T11:32:59.225Z,975.23
2016-09-06T11:33:59.198Z,975.12
2016-09-06T11:34:59.176Z,975.19
2016-09-06T11:35:59.151Z,975.22
2016-09-06T11:36:59.125Z,975.16
2016-09-06T11:37:59.100Z,975.14
2016-09-06T11:38:59.075Z,975.23
2016-09-06T11:39:59.049Z,975.16
2016-09-06T11:40:59.024Z,975.21
2016-09-06T11:41:59.000Z,975.2
2016-09-06T11:42:58.978Z,975.19
2016-09-06T11:43:58.947Z,975.17
2016-09-06T11:44:58.919Z,975.17
2016-09-06T11:45:58.894Z,975.16
2016-09-06T11:46:58.867Z,975.13
2016-09-06T11:47:58.843Z,975.12
2016-09-06T11:48:58.814Z,975.12
2016-09-06T11:49:58.788Z,975.11
2016-09-06T11:50:58.760Z,975.07
2016-09-06T11:51:58.734Z,975.08
2016-09-06T11:52:58.706Z,975.06
2016-09-06T11:53:58.680Z,975.13
2016-09-06T11:54:58.655Z,975.12
2016-09-06T11:55:58.627Z,975.05
2016-09-06T11:56:58.599Z,975.04
2016-09-06T11:57:58.574Z,975.02
2016-09-06T11:58:58.546Z,974.96
2016-09-06T11:59:58.518Z,974.91
2016-09-06T12:00:58.491Z,975.04
2016-09-06T12:01:58.464Z,975
2016-09-06T12:02:58.436Z,974.97
2016-09-06T12:03:58.409Z,974.96
2016-09-06T12:04:58.384Z,974.87
2016-09-06T12:05:58.355Z,974.88
2016-09-06T12:06:58.326Z,974.84
2016-09-06T12:07:58.298Z,974.79
2016-09-06T12:08:58.276Z,974.83
2016-09-06T12:09:58.244Z,974.81
2016-09-06T12:10:58.218Z,974.84
2016-09-06T12:11:58.188Z,974.84
2016-09-06T12:12:58.161Z,974.72
2016-09-06T12:13:58.134Z,974.79
2016-09-06T12:14:58.105Z,974.82
2016-09-06T12:15:58.078Z,974.83
2016-09-06T12:16:58.050Z,974.86
2016-09-06T12:17:58.023Z,974.89
2016-09-06T12:18:57.994Z,974.77
2016-09-06T12:19:57.969Z,974.75
2016-09-06T12:20:57.941Z,974.79
2016-09-06T12:21:57.911Z,974.73
2016-09-06T12:22:57.882Z,974.76
2016-09-06T12:23:57.857Z,974.79
2016-09-06T12:24:57.827Z,974.79
2016-09-06T12:25:57.802Z,974.82
2016-09-06T12:26:57.775Z,974.75
2016-09-06T12:27:57.745Z,974.74
2016-09-06T12:28:57.715Z,974.73
2016-09-06T12:29:57.689Z,974.87
2016-09-06T12:30:57.661Z,974.82